createdAt,value
2019-04-06T00:01:38.488Z,7.06
2019-04-06T00:06:47.369Z,7.63
2019-04-06T00:11:56.351Z,7.94
2019-04-06T00:17:05.232Z,9.23
2019-04-06T00:22:14.205Z,9.54
2019-04-06T00:27:24.651Z,10.09
2019-04-06T00:32:31.611Z,11.32
2019-04-06T00:37:40.907Z,11.50
2019-04-06T00:42:49.890Z,12.33
2019-04-06T00:47:58.791Z,14.44
2019-04-06T00:53:07.781Z,14.76
2019-04-06T00:58:16.652Z,16.49
2019-04-06T01:03:25.706Z,17.34
2019-04-06T01:08:34.569Z,18.31
2019-04-06T01:13:43.558Z,19.20
2019-04-06T01:18:52.435Z,19.93
2019-04-06T01:23:59.924Z,20.35
2019-04-06T01:29:08.861Z,20.89
2019-04-06T01:34:17.968Z,21.79
2019-04-06T01:39:26.876Z,22.16
2019-04-06T01:44:35.862Z,21.67
2019-04-06T01:49:44.729Z,22.42
2019-04-06T01:54:53.676Z,22.70
2019-04-06T02:00:02.561Z,23.13
2019-04-06T02:05:11.525Z,24.07
2019-04-06T02:10:20.414Z,23.25
2019-04-06T02:15:29.384Z,23.61
2019-04-06T02:20:38.214Z,23.76
2019-04-06T02:25:47.216Z,24.65
2019-04-06T02:30:56.080Z,24.98
2019-04-06T02:36:05.165Z,25.86
2019-04-06T02:41:13.971Z,26.52
2019-04-06T02:46:22.948Z,26.05
2019-04-06T02:51:31.893Z,25.40
2019-04-06T02:56:46.293Z,27.06
2019-04-06T03:01:49.261Z,25.35
2019-04-06T03:06:58.232Z,26.47
2019-04-06T03:12:07.261Z,25.52
2019-04-06T03:17:16.221Z,25.50
2019-04-06T03:22:25.121Z,25.67
2019-04-06T03:27:34.084Z,25.02
2019-04-06T03:32:42.995Z,25.42
2019-04-06T03:37:52.004Z,24.34
2019-04-06T03:43:00.870Z,23.73
2019-04-06T03:48:09.796Z,22.85
2019-04-06T03:53:18.664Z,23.30
2019-04-06T03:58:27.667Z,23.12
2019-04-06T04:03:36.510Z,22.85
2019-04-06T04:08:45.524Z,24.12
2019-04-06T04:13:53.166Z,23.54
2019-04-06T04:19:01.813Z,23.38
2019-04-06T04:24:10.734Z,21.81
2019-04-06T04:29:19.698Z,22.87
2019-04-06T04:34:28.626Z,22.13
2019-04-06T04:39:37.547Z,22.08
2019-04-06T04:44:46.367Z,20.74
2019-04-06T04:49:55.310Z,21.41
2019-04-06T04:55:04.255Z,22.37
2019-04-06T05:00:13.182Z,21.21
2019-04-06T05:05:22.115Z,21.30
2019-04-06T05:10:31.143Z,20.83
2019-04-06T05:15:40.033Z,21.29
2019-04-06T05:20:49.098Z,20.69
2019-04-06T05:25:57.784Z,20.05
2019-04-06T05:31:06.716Z,19.62
2019-04-06T05:36:15.670Z,20.16
2019-04-06T05:41:24.963Z,20.54
2019-04-06T05:46:33.851Z,20.86
2019-04-06T05:51:42.863Z,21.93
2019-04-06T05:56:51.888Z,21.30
2019-04-06T06:02:00.827Z,20.21
2019-04-06T06:07:09.701Z,22.70
2019-04-06T06:12:18.613Z,20.74
2019-04-06T06:17:27.521Z,22.67
2019-04-06T06:22:36.451Z,22.98
2019-04-06T06:27:45.335Z,22.73
2019-04-06T06:32:52.791Z,21.42
2019-04-06T06:38:01.652Z,22.06
2019-04-06T06:43:11.268Z,21.74
2019-04-06T06:48:20.334Z,22.21
2019-04-06T06:53:30.016Z,22.54
2019-04-06T06:58:39.030Z,23.17
2019-04-06T07:03:48.279Z,22.65
2019-04-06T07:08:57.890Z,22.29
2019-04-06T07:14:07.384Z,21.95
2019-04-06T07:19:17.535Z,22.62
2019-04-06T07:24:19.557Z,21.00
2019-04-06T07:29:18.174Z,21.01
2019-04-06T07:34:27.152Z,20.66
2019-04-06T07:39:36.025Z,21.41
2019-04-06T07:44:45.059Z,20.03
2019-04-06T07:49:53.928Z,18.45
2019-04-06T07:55:02.846Z,17.85
2019-04-06T08:00:11.744Z,19.52
2019-04-06T08:05:20.646Z,18.12
2019-04-06T08:10:29.527Z,19.07
2019-04-06T08:15:38.756Z,18.82
2019-04-06T08:20:47.505Z,19.21
2019-04-06T08:25:56.439Z,20.45
2019-04-06T08:31:05.389Z,19.17
2019-04-06T08:36:14.287Z,17.63
2019-04-06T08:41:23.182Z,17.83
2019-04-06T08:46:32.211Z,15.87
2019-04-06T08:51:43.024Z,16.99
2019-04-06T08:56:42.083Z,16.84
2019-04-06T09:01:50.901Z,17.10
2019-04-06T09:06:59.882Z,17.30
2019-04-06T09:12:08.823Z,17.22
2019-04-06T09:17:17.776Z,17.27
2019-04-06T09:22:38.795Z,16.69
2019-04-06T09:27:27.771Z,16.76
2019-04-06T09:32:37.060Z,16.15
2019-04-06T09:37:46.051Z,14.86
2019-04-06T09:42:55.123Z,15.42
2019-04-06T09:48:04.322Z,16.16
2019-04-06T09:53:13.034Z,14.98
2019-04-06T09:58:22.201Z,15.51
2019-04-06T10:03:30.876Z,15.32
2019-04-06T10:08:40.141Z,16.82
2019-04-06T10:13:49.084Z,15.44
2019-04-06T10:18:58.051Z,15.57
2019-04-06T10:24:06.971Z,16.71
2019-04-06T10:29:15.999Z,16.52
2019-04-06T10:34:24.879Z,20.60
2019-04-06T10:39:34.046Z,17.38
2019-04-06T10:44:42.723Z,17.75
2019-04-06T10:49:51.695Z,19.35
2019-04-06T10:55:00.569Z,20.64
2019-04-06T11:00:10.202Z,21.09
2019-04-06T11:05:19.074Z,22.36
2019-04-06T11:10:28.227Z,21.01
2019-04-06T11:15:35.645Z,19.81
2019-04-06T11:20:44.792Z,22.27
2019-04-06T11:25:53.566Z,24.57
2019-04-06T11:31:02.554Z,18.71
2019-04-06T11:36:11.443Z,25.40
2019-04-06T11:41:20.411Z,18.22
2019-04-06T11:46:29.305Z,24.35
2019-04-06T11:51:38.307Z,22.91
2019-04-06T11:56:47.526Z,16.31
2019-04-06T12:01:56.230Z,16.80
2019-04-06T12:07:05.026Z,18.16
2019-04-06T12:12:14.019Z,16.81
2019-04-06T12:17:23.211Z,21.59
2019-04-06T12:22:31.918Z,14.34
2019-04-06T12:27:41.214Z,13.63
2019-04-06T12:32:50.206Z,11.78
2019-04-06T12:37:59.296Z,12.39
2019-04-06T12:43:08.244Z,10.72
2019-04-06T12:48:18.311Z,12.75
2019-04-06T12:53:26.543Z,12.43
2019-04-06T12:58:35.489Z,10.87
2019-04-06T13:03:42.968Z,9.67
2019-04-06T13:08:52.064Z,11.55
2019-04-06T13:14:01.013Z,12.66
2019-04-06T13:19:10.325Z,10.62
2019-04-06T13:24:18.783Z,14.84
2019-04-06T13:29:27.056Z,12.60
2019-04-06T13:34:36.921Z,11.09
2019-04-06T13:39:45.869Z,9.82
2019-04-06T13:44:54.972Z,9.17
2019-04-06T13:50:04.092Z,10.01
2019-04-06T13:55:13.267Z,8.56
2019-04-06T14:00:21.282Z,8.02
2019-04-06T14:05:30.289Z,7.38
2019-04-06T14:10:39.225Z,6.53
2019-04-06T14:15:48.259Z,5.26
2019-04-06T14:20:57.220Z,5.15
2019-04-06T14:26:06.463Z,4.55
2019-04-06T14:31:25.723Z,4.48
2019-04-06T14:36:23.828Z,4.27
2019-04-06T14:41:32.798Z,3.85
2019-04-06T14:46:41.903Z,4.65
2019-04-06T14:51:50.839Z,4.68
2019-04-06T14:57:00.216Z,4.17
2019-04-06T15:02:08.557Z,4.30
2019-04-06T15:07:17.336Z,4.25
2019-04-06T15:12:26.660Z,4.38
2019-04-06T15:17:35.469Z,4.70
2019-04-06T15:22:44.361Z,4.40
2019-04-06T15:27:53.453Z,4.67
2019-04-06T15:33:02.399Z,4.33
2019-04-06T15:38:12.814Z,4.24
2019-04-06T15:43:11.631Z,3.67
2019-04-06T15:48:20.647Z,3.87
2019-04-06T15:53:29.604Z,3.75
2019-04-06T15:58:38.599Z,3.53
2019-04-06T16:03:47.642Z,3.67
2019-04-06T16:08:56.954Z,4.02
2019-04-06T16:14:05.142Z,3.39
2019-04-06T16:19:14.150Z,3.54
2019-04-06T16:24:23.051Z,3.50
2019-04-06T16:29:32.077Z,3.08
2019-04-06T16:34:41.072Z,3.54
2019-04-06T16:39:50.068Z,3.31
2019-04-06T16:44:59.025Z,3.19
2019-04-06T16:50:08.223Z,3.79
2019-04-06T16:55:17.028Z,4.35
2019-04-06T17:00:26.432Z,3.48
2019-04-06T17:05:37.755Z,3.66
2019-04-06T17:10:37.064Z,4.33
2019-04-06T17:15:45.233Z,4.18
2019-04-06T17:20:54.352Z,3.62
2019-04-06T17:26:03.396Z,3.75
2019-04-06T17:31:12.355Z,4.27
2019-04-06T17:36:21.563Z,3.44
2019-04-06T17:41:30.532Z,3.84
2019-04-06T17:46:39.526Z,4.22
2019-04-06T17:51:48.524Z,4.83
2019-04-06T17:56:57.312Z,4.43
2019-04-06T18:02:06.505Z,3.63
2019-04-06T18:07:15.163Z,4.17
2019-04-06T18:12:25.370Z,4.00
2019-04-06T18:17:24.261Z,4.20
2019-04-06T18:22:33.521Z,4.50
2019-04-06T18:27:41.806Z,4.54
2019-04-06T18:32:59.636Z,4.04
2019-04-06T18:37:59.198Z,3.36
2019-04-06T18:43:07.874Z,3.08
2019-04-06T18:48:16.950Z,2.95
2019-04-06T18:53:25.646Z,3.43
2019-04-06T18:58:34.834Z,3.70
2019-04-06T19:03:43.742Z,3.58
2019-04-06T19:08:52.604Z,3.38
2019-04-06T19:14:01.490Z,3.77
2019-04-06T19:19:10.474Z,3.55
2019-04-06T19:24:19.478Z,3.52
2019-04-06T19:29:28.389Z,3.82
2019-04-06T19:34:38.355Z,3.19
2019-04-06T19:39:47.720Z,3.09
2019-04-06T19:44:55.757Z,3.28
2019-04-06T19:50:04.851Z,3.22
2019-04-06T19:55:13.817Z,3.19
2019-04-06T20:00:22.571Z,3.57
2019-04-06T20:05:31.641Z,3.76
2019-04-06T20:10:43.548Z,4.46
2019-04-06T20:15:42.695Z,4.87
2019-04-06T20:20:51.752Z,5.57
2019-04-06T20:26:00.611Z,5.36
2019-04-06T20:31:09.627Z,6.36
2019-04-06T20:36:18.564Z,6.03
2019-04-06T20:41:27.891Z,6.29
2019-04-06T20:46:36.596Z,6.14
2019-04-06T20:51:45.571Z,6.00
2019-04-06T20:56:57.508Z,5.17
2019-04-06T21:02:01.667Z,4.86
2019-04-06T21:07:11.127Z,4.51
2019-04-06T21:12:19.254Z,3.92
2019-04-06T21:17:28.074Z,3.64
2019-04-06T21:22:40.014Z,3.35
2019-04-06T21:27:39.393Z,3.21
2019-04-06T21:32:47.964Z,3.24
2019-04-06T21:37:56.156Z,3.29
2019-04-06T21:43:05.462Z,3.52
2019-04-06T21:48:13.254Z,3.50
2019-04-06T21:53:22.160Z,3.57
2019-04-06T21:58:32.446Z,3.67
2019-04-06T22:03:31.427Z,3.48
2019-04-06T22:08:39.519Z,3.89
2019-04-06T22:13:48.721Z,4.17
2019-04-06T22:18:56.804Z,4.41
2019-04-06T22:24:05.690Z,5.18
2019-04-06T22:29:14.770Z,5.12
2019-04-06T22:34:34.744Z,5.64
2019-04-06T22:39:32.606Z,5.72
2019-04-06T22:44:40.622Z,6.27
2019-04-06T22:49:49.827Z,6.05
2019-04-06T22:54:58.532Z,6.34
2019-04-06T23:00:07.402Z,6.83
2019-04-06T23:05:16.451Z,7.12
2019-04-06T23:10:25.941Z,8.48
2019-04-06T23:15:33.905Z,7.72
2019-04-06T23:20:42.851Z,7.44
2019-04-06T23:25:56.344Z,7.68
2019-04-06T23:30:55.728Z,7.77
2019-04-06T23:36:04.309Z,7.84
2019-04-06T23:41:13.714Z,7.91
2019-04-06T23:46:22.372Z,7.72
2019-04-06T23:51:31.428Z,7.60
2019-04-06T23:56:40.559Z,7.39
